sensor_id;sensor_type;location;lat;lon;timestamp;pressure;altitude;pressure_sealevel;temperature;humidity
41515;BME280;27247;48.020;16.720;2023-03-07T00:02:21;98869.50;;;3.60;74.92
41515;BME280;27247;48.020;16.720;2023-03-07T00:06:31;98864.38;;;3.58;75.03
41515;BME280;27247;48.020;16.720;2023-03-07T00:10:41;98867.84;;;3.59;74.69
41515;BME280;27247;48.020;16.720;2023-03-07T00:14:54;98866.66;;;3.53;74.75
41515;BME280;27247;48.020;16.720;2023-03-07T00:19:05;98866.13;;;3.49;74.63
41515;BME280;27247;48.020;16.720;2023-03-07T00:23:17;98868.56;;;3.43;75.11
41515;BME280;27247;48.020;16.720;2023-03-07T00:27:29;98862.16;;;3.45;74.90
41515;BME280;27247;48.020;16.720;2023-03-07T00:31:39;98865.00;;;3.52;74.97
41515;BME280;27247;48.020;16.720;2023-03-07T00:36:14;98852.63;;;3.52;74.64
41515;BME280;27247;48.020;16.720;2023-03-07T00:40:25;98851.31;;;2.95;74.98
41515;BME280;27247;48.020;16.720;2023-03-07T00:44:35;98857.97;;;2.81;75.07
41515;BME280;27247;48.020;16.720;2023-03-07T00:48:46;98850.34;;;2.61;77.12
41515;BME280;27247;48.020;16.720;2023-03-07T00:52:57;98853.00;;;2.33;78.70
41515;BME280;27247;48.020;16.720;2023-03-07T00:57:07;98843.91;;;2.45;78.49
41515;BME280;27247;48.020;16.720;2023-03-07T01:01:20;98838.50;;;2.47;77.67
41515;BME280;27247;48.020;16.720;2023-03-07T01:05:31;98834.44;;;2.52;78.26
41515;BME280;27247;48.020;16.720;2023-03-07T01:09:41;98828.03;;;2.55;78.19
41515;BME280;27247;48.020;16.720;2023-03-07T01:13:55;98833.00;;;2.58;77.85
41515;BME280;27247;48.020;16.720;2023-03-07T01:18:07;98828.03;;;2.55;77.45
41515;BME280;27247;48.020;16.720;2023-03-07T01:22:18;98824.72;;;2.53;77.80
41515;BME280;27247;48.020;16.720;2023-03-07T01:26:30;98821.41;;;2.51;77.99
41515;BME280;27247;48.020;16.720;2023-03-07T01:30:41;98826.09;;;2.57;78.02
41515;BME280;27247;48.020;16.720;2023-03-07T01:34:51;98822.63;;;2.56;78.09
41515;BME280;27247;48.020;16.720;2023-03-07T01:39:05;98826.91;;;2.58;77.84
41515;BME280;27247;48.020;16.720;2023-03-07T01:47:35;98822.41;;;2.68;78.09
41515;BME280;27247;48.020;16.720;2023-03-07T01:51:49;98810.34;;;2.65;77.96
41515;BME280;27247;48.020;16.720;2023-03-07T01:56:02;98803.56;;;2.63;77.70
41515;BME280;27247;48.020;16.720;2023-03-07T02:00:15;98809.06;;;2.69;77.39
41515;BME280;27247;48.020;16.720;2023-03-07T02:04:37;98789.69;;;2.61;77.66
41515;BME280;27247;48.020;16.720;2023-03-07T02:08:49;98780.72;;;2.53;77.86
41515;BME280;27247;48.020;16.720;2023-03-07T02:13:00;98784.72;;;2.58;77.53
41515;BME280;27247;48.020;16.720;2023-03-07T02:17:11;98800.81;;;2.19;77.11
41515;BME280;27247;48.020;16.720;2023-03-07T02:25:48;98784.50;;;1.78;80.42
41515;BME280;27247;48.020;16.720;2023-03-07T02:30:06;98778.50;;;1.86;80.65
41515;BME280;27247;48.020;16.720;2023-03-07T02:38:32;98775.06;;;2.13;80.13
41515;BME280;27247;48.020;16.720;2023-03-07T02:42:47;98771.91;;;2.27;79.63
41515;BME280;27247;48.020;16.720;2023-03-07T02:46:58;98762.19;;;2.28;78.89
41515;BME280;27247;48.020;16.720;2023-03-07T02:51:08;98758.03;;;2.25;78.58
41515;BME280;27247;48.020;16.720;2023-03-07T02:55:18;98758.50;;;2.38;78.91
41515;BME280;27247;48.020;16.720;2023-03-07T02:59:29;98745.91;;;2.50;78.05
41515;BME280;27247;48.020;16.720;2023-03-07T03:03:39;98745.53;;;2.45;78.26
41515;BME280;27247;48.020;16.720;2023-03-07T03:07:50;98746.22;;;2.47;77.44
41515;BME280;27247;48.020;16.720;2023-03-07T03:12:00;98750.97;;;2.43;77.62
41515;BME280;27247;48.020;16.720;2023-03-07T03:16:10;98750.59;;;2.38;78.20
41515;BME280;27247;48.020;16.720;2023-03-07T03:20:21;98757.75;;;2.28;77.98
41515;BME280;27247;48.020;16.720;2023-03-07T03:24:32;98766.69;;;2.17;77.76
41515;BME280;27247;48.020;16.720;2023-03-07T03:28:42;98769.94;;;2.02;78.72
41515;BME280;27247;48.020;16.720;2023-03-07T03:32:53;98767.84;;;2.05;78.30
41515;BME280;27247;48.020;16.720;2023-03-07T03:37:03;98775.28;;;1.92;78.24
41515;BME280;27247;48.020;16.720;2023-03-07T03:41:14;98775.31;;;1.82;77.99
41515;BME280;27247;48.020;16.720;2023-03-07T03:45:27;98778.84;;;1.73;78.68
41515;BME280;27247;48.020;16.720;2023-03-07T03:49:37;98771.97;;;1.63;79.11
41515;BME280;27247;48.020;16.720;2023-03-07T03:53:48;98771.13;;;1.62;78.79
41515;BME280;27247;48.020;16.720;2023-03-07T03:57:59;98761.28;;;1.64;78.89
41515;BME280;27247;48.020;16.720;2023-03-07T04:02:09;98770.22;;;1.44;80.76
41515;BME280;27247;48.020;16.720;2023-03-07T04:06:25;98767.34;;;1.37;81.48
41515;BME280;27247;48.020;16.720;2023-03-07T04:10:35;98770.97;;;1.26;81.73
41515;BME280;27247;48.020;16.720;2023-03-07T04:14:46;98774.63;;;0.87;82.86
41515;BME280;27247;48.020;16.720;2023-03-07T04:18:56;98772.16;;;0.85;84.28
41515;BME280;27247;48.020;16.720;2023-03-07T04:23:07;98774.78;;;1.05;83.48
41515;BME280;27247;48.020;16.720;2023-03-07T04:27:17;98777.50;;;1.22;82.86
41515;BME280;27247;48.020;16.720;2023-03-07T04:31:27;98770.13;;;1.36;82.33
41515;BME280;27247;48.020;16.720;2023-03-07T04:35:38;98770.59;;;1.21;80.87
41515;BME280;27247;48.020;16.720;2023-03-07T04:39:49;98767.81;;;1.04;81.50
41515;BME280;27247;48.020;16.720;2023-03-07T04:43:59;98771.88;;;0.79;82.50
41515;BME280;27247;48.020;16.720;2023-03-07T04:48:09;98756.78;;;0.90;82.28
41515;BME280;27247;48.020;16.720;2023-03-07T04:52:20;98756.94;;;0.79;82.83
41515;BME280;27247;48.020;16.720;2023-03-07T04:56:30;98766.63;;;0.59;83.02
41515;BME280;27247;48.020;16.720;2023-03-07T05:00:41;98766.34;;;0.62;83.00
41515;BME280;27247;48.020;16.720;2023-03-07T05:04:52;98758.88;;;0.58;84.16
41515;BME280;27247;48.020;16.720;2023-03-07T05:09:02;98759.72;;;0.58;84.76
41515;BME280;27247;48.020;16.720;2023-03-07T05:13:13;98770.50;;;0.55;85.24
41515;BME280;27247;48.020;16.720;2023-03-07T05:17:24;98770.50;;;0.75;83.90
41515;BME280;27247;48.020;16.720;2023-03-07T05:21:34;98772.44;;;0.73;83.71
41515;BME280;27247;48.020;16.720;2023-03-07T05:25:45;98781.44;;;0.70;84.06
41515;BME280;27247;48.020;16.720;2023-03-07T05:29:58;98774.66;;;0.68;84.57
41515;BME280;27247;48.020;16.720;2023-03-07T05:34:08;98769.81;;;0.63;84.90
41515;BME280;27247;48.020;16.720;2023-03-07T05:38:22;98776.03;;;0.72;85.36
41515;BME280;27247;48.020;16.720;2023-03-07T05:42:32;98766.19;;;0.83;84.45
41515;BME280;27247;48.020;16.720;2023-03-07T05:46:42;98764.38;;;0.93;84.07
41515;BME280;27247;48.020;16.720;2023-03-07T05:50:53;98768.25;;;0.99;83.87
41515;BME280;27247;48.020;16.720;2023-03-07T05:55:03;98773.53;;;1.09;83.44
41515;BME280;27247;48.020;16.720;2023-03-07T05:59:14;98772.63;;;1.37;81.06
41515;BME280;27247;48.020;16.720;2023-03-07T06:03:24;98767.16;;;2.03;76.77
41515;BME280;27247;48.020;16.720;2023-03-07T06:07:35;98770.25;;;2.26;76.88
41515;BME280;27247;48.020;16.720;2023-03-07T06:11:45;98759.09;;;2.50;74.81
41515;BME280;27247;48.020;16.720;2023-03-07T06:15:56;98767.47;;;2.63;76.09
41515;BME280;27247;48.020;16.720;2023-03-07T06:20:07;98775.69;;;2.60;78.70
41515;BME280;27247;48.020;16.720;2023-03-07T06:24:17;98782.75;;;2.60;78.78
41515;BME280;27247;48.020;16.720;2023-03-07T06:28:28;98786.53;;;2.57;79.52
41515;BME280;27247;48.020;16.720;2023-03-07T06:32:38;98789.16;;;2.57;80.05
41515;BME280;27247;48.020;16.720;2023-03-07T06:36:49;98796.16;;;2.66;80.23
41515;BME280;27247;48.020;16.720;2023-03-07T06:40:59;98801.22;;;2.77;79.74
41515;BME280;27247;48.020;16.720;2023-03-07T06:45:10;98797.22;;;2.91;79.46
41515;BME280;27247;48.020;16.720;2023-03-07T06:49:20;98792.88;;;3.08;79.16
41515;BME280;27247;48.020;16.720;2023-03-07T06:53:31;98785.56;;;3.19;78.47
41515;BME280;27247;48.020;16.720;2023-03-07T06:57:41;98795.78;;;3.40;77.78
41515;BME280;27247;48.020;16.720;2023-03-07T07:01:51;98785.47;;;3.55;78.38
41515;BME280;27247;48.020;16.720;2023-03-07T07:06:02;98791.97;;;3.69;76.97
41515;BME280;27247;48.020;16.720;2023-03-07T07:10:12;98789.22;;;3.78;76.19
41515;BME280;27247;48.020;16.720;2023-03-07T07:14:23;98787.94;;;3.91;77.32
41515;BME280;27247;48.020;16.720;2023-03-07T07:18:33;98790.13;;;4.03;74.76
41515;BME280;27247;48.020;16.720;2023-03-07T07:22:44;98778.47;;;4.22;75.40
41515;BME280;27247;48.020;16.720;2023-03-07T07:26:54;98772.56;;;4.28;75.49
41515;BME280;27247;48.020;16.720;2023-03-07T07:31:05;98780.19;;;4.39;75.88
41515;BME280;27247;48.020;16.720;2023-03-07T07:35:15;98779.22;;;4.57;76.78
41515;BME280;27247;48.020;16.720;2023-03-07T07:39:26;98776.75;;;4.63;77.06
41515;BME280;27247;48.020;16.720;2023-03-07T07:43:37;98781.38;;;4.77;77.39
41515;BME280;27247;48.020;16.720;2023-03-07T07:47:49;98778.25;;;4.82;76.67
41515;BME280;27247;48.020;16.720;2023-03-07T07:51:59;98777.75;;;4.78;78.18
41515;BME280;27247;48.020;16.720;2023-03-07T07:56:10;98781.56;;;4.84;79.11
41515;BME280;27247;48.020;16.720;2023-03-07T08:00:21;98789.31;;;4.77;79.96
41515;BME280;27247;48.020;16.720;2023-03-07T08:04:31;98785.19;;;4.75;80.19
41515;BME280;27247;48.020;16.720;2023-03-07T08:08:41;98792.31;;;4.82;80.12
41515;BME280;27247;48.020;16.720;2023-03-07T08:12:52;98784.84;;;4.86;80.21
41515;BME280;27247;48.020;16.720;2023-03-07T08:17:02;98781.06;;;4.97;80.40
41515;BME280;27247;48.020;16.720;2023-03-07T08:21:13;98784.69;;;5.04;80.88
41515;BME280;27247;48.020;16.720;2023-03-07T08:25:23;98786.00;;;5.00;80.91
41515;BME280;27247;48.020;16.720;2023-03-07T08:29:34;98773.44;;;5.02;81.13
41515;BME280;27247;48.020;16.720;2023-03-07T08:33:48;98775.25;;;5.01;81.47
41515;BME280;27247;48.020;16.720;2023-03-07T08:37:58;98767.47;;;5.00;81.66
41515;BME280;27247;48.020;16.720;2023-03-07T08:42:09;98764.00;;;5.16;81.88
41515;BME280;27247;48.020;16.720;2023-03-07T08:46:19;98767.13;;;5.19;81.92
41515;BME280;27247;48.020;16.720;2023-03-07T08:50:30;98769.47;;;5.22;81.83
41515;BME280;27247;48.020;16.720;2023-03-07T08:54:40;98765.81;;;5.39;82.12
41515;BME280;27247;48.020;16.720;2023-03-07T08:58:52;98766.78;;;5.38;81.77
41515;BME280;27247;48.020;16.720;2023-03-07T09:03:04;98780.38;;;5.35;81.93
41515;BME280;27247;48.020;16.720;2023-03-07T09:07:14;98772.91;;;5.39;82.50
41515;BME280;27247;48.020;16.720;2023-03-07T09:11:25;98770.75;;;5.51;82.39
41515;BME280;27247;48.020;16.720;2023-03-07T09:15:38;98765.59;;;5.57;82.20
41515;BME280;27247;48.020;16.720;2023-03-07T09:19:49;98763.88;;;5.72;82.83
41515;BME280;27247;48.020;16.720;2023-03-07T09:23:59;98756.06;;;5.79;83.36
41515;BME280;27247;48.020;16.720;2023-03-07T09:28:10;98754.72;;;5.83;83.32
41515;BME280;27247;48.020;16.720;2023-03-07T09:32:20;98763.69;;;5.82;84.33
41515;BME280;27247;48.020;16.720;2023-03-07T09:36:30;98750.72;;;5.95;83.45
41515;BME280;27247;48.020;16.720;2023-03-07T09:40:44;98736.03;;;6.16;83.95
41515;BME280;27247;48.020;16.720;2023-03-07T09:49:19;98743.88;;;6.40;82.14
41515;BME280;27247;48.020;16.720;2023-03-07T09:57:46;98726.81;;;6.80;81.54
41515;BME280;27247;48.020;16.720;2023-03-07T10:06:25;98717.59;;;6.91;79.67
41515;BME280;27247;48.020;16.720;2023-03-07T10:10:40;98703.41;;;6.98;78.49
41515;BME280;27247;48.020;16.720;2023-03-07T10:32:42;98712.56;;;6.35;81.79
41515;BME280;27247;48.020;16.720;2023-03-07T10:37:03;98710.97;;;6.26;82.48
41515;BME280;27247;48.020;16.720;2023-03-07T10:41:20;98706.66;;;6.25;81.73
41515;BME280;27247;48.020;16.720;2023-03-07T10:45:32;98703.19;;;6.25;81.76
41515;BME280;27247;48.020;16.720;2023-03-07T10:49:45;98694.41;;;6.24;81.85
41515;BME280;27247;48.020;16.720;2023-03-07T10:53:56;98686.38;;;6.32;81.31
41515;BME280;27247;48.020;16.720;2023-03-07T10:58:23;98690.41;;;6.28;81.08
41515;BME280;27247;48.020;16.720;2023-03-07T11:02:36;98675.97;;;6.31;80.66
41515;BME280;27247;48.020;16.720;2023-03-07T11:06:52;98678.72;;;6.37;80.33
41515;BME280;27247;48.020;16.720;2023-03-07T11:11:03;98678.69;;;6.15;81.40
41515;BME280;27247;48.020;16.720;2023-03-07T11:15:18;98674.59;;;6.35;81.72
41515;BME280;27247;48.020;16.720;2023-03-07T11:19:41;98669.53;;;6.25;83.54
41515;BME280;27247;48.020;16.720;2023-03-07T11:24:02;98666.19;;;6.23;83.05
41515;BME280;27247;48.020;16.720;2023-03-07T11:28:33;98650.44;;;6.30;84.11
41515;BME280;27247;48.020;16.720;2023-03-07T11:32:50;98641.66;;;6.29;83.14
41515;BME280;27247;48.020;16.720;2023-03-07T11:55:55;98617.25;;;6.34;82.25
41515;BME280;27247;48.020;16.720;2023-03-07T12:22:28;98601.84;;;6.96;82.38
41515;BME280;27247;48.020;16.720;2023-03-07T12:26:44;98590.78;;;6.78;82.07
41515;BME280;27247;48.020;16.720;2023-03-07T12:40:19;98575.41;;;6.88;82.90
41515;BME280;27247;48.020;16.720;2023-03-07T12:44:06;98561.97;;;7.55;81.43
41515;BME280;27247;48.020;16.720;2023-03-07T12:52:46;98558.44;;;8.12;76.77
41515;BME280;27247;48.020;16.720;2023-03-07T13:01:20;98546.53;;;7.65;79.46
41515;BME280;27247;48.020;16.720;2023-03-07T13:05:36;98535.38;;;7.98;77.85
41515;BME280;27247;48.020;16.720;2023-03-07T13:09:49;98529.81;;;7.93;78.17
41515;BME280;27247;48.020;16.720;2023-03-07T13:14:03;98519.16;;;7.93;77.96
41515;BME280;27247;48.020;16.720;2023-03-07T13:18:25;98512.84;;;7.73;76.55
41515;BME280;27247;48.020;16.720;2023-03-07T13:26:52;98502.16;;;7.87;76.69
41515;BME280;27247;48.020;16.720;2023-03-07T13:39:57;98485.56;;;7.85;77.13
41515;BME280;27247;48.020;16.720;2023-03-07T13:44:38;98488.03;;;7.87;75.72
41515;BME280;27247;48.020;16.720;2023-03-07T13:57:22;98474.69;;;7.23;76.58
41515;BME280;27247;48.020;16.720;2023-03-07T14:05:48;98443.75;;;6.79;79.79
41515;BME280;27247;48.020;16.720;2023-03-07T14:10:14;98424.84;;;6.53;81.66
41515;BME280;27247;48.020;16.720;2023-03-07T14:14:57;98437.44;;;6.21;82.93
41515;BME280;27247;48.020;16.720;2023-03-07T14:24:17;98442.91;;;5.67;85.91
41515;BME280;27247;48.020;16.720;2023-03-07T14:28:32;98426.69;;;5.48;87.70
41515;BME280;27247;48.020;16.720;2023-03-07T14:32:42;98418.00;;;5.54;87.98
41515;BME280;27247;48.020;16.720;2023-03-07T14:37:06;98437.28;;;5.48;88.17
41515;BME280;27247;48.020;16.720;2023-03-07T14:41:30;98422.88;;;5.27;89.78
41515;BME280;27247;48.020;16.720;2023-03-07T14:46:12;98427.69;;;5.24;90.33
41515;BME280;27247;48.020;16.720;2023-03-07T14:50:28;98429.00;;;4.97;91.83
41515;BME280;27247;48.020;16.720;2023-03-07T14:54:39;98432.03;;;4.86;92.50
41515;BME280;27247;48.020;16.720;2023-03-07T14:59:00;98416.91;;;4.71;93.32
41515;BME280;27247;48.020;16.720;2023-03-07T15:03:13;98413.94;;;4.66;93.94
41515;BME280;27247;48.020;16.720;2023-03-07T15:07:24;98405.56;;;4.55;95.00
41515;BME280;27247;48.020;16.720;2023-03-07T15:11:37;98398.16;;;4.50;96.54
41515;BME280;27247;48.020;16.720;2023-03-07T15:15:54;98378.81;;;4.49;97.02
41515;BME280;27247;48.020;16.720;2023-03-07T15:20:25;98365.50;;;4.35;97.40
41515;BME280;27247;48.020;16.720;2023-03-07T15:24:38;98374.47;;;4.26;98.04
41515;BME280;27247;48.020;16.720;2023-03-07T15:29:01;98359.47;;;4.18;98.48
41515;BME280;27247;48.020;16.720;2023-03-07T15:33:22;98355.47;;;4.14;99.49
41515;BME280;27247;48.020;16.720;2023-03-07T15:37:34;98332.69;;;4.13;99.67
41515;BME280;27247;48.020;16.720;2023-03-07T15:41:58;98350.84;;;4.16;98.65
41515;BME280;27247;48.020;16.720;2023-03-07T15:46:16;98347.22;;;4.09;98.94
41515;BME280;27247;48.020;16.720;2023-03-07T15:50:28;98334.19;;;4.07;99.38
41515;BME280;27247;48.020;16.720;2023-03-07T15:54:40;98340.94;;;4.10;99.67
41515;BME280;27247;48.020;16.720;2023-03-07T15:59:34;98338.66;;;4.07;100.00
41515;BME280;27247;48.020;16.720;2023-03-07T16:03:53;98335.66;;;4.10;100.00
41515;BME280;27247;48.020;16.720;2023-03-07T16:08:09;98335.69;;;4.02;100.00
41515;BME280;27247;48.020;16.720;2023-03-07T16:12:22;98327.28;;;3.98;100.00
41515;BME280;27247;48.020;16.720;2023-03-07T16:16:33;98313.97;;;3.83;100.00
41515;BME280;27247;48.020;16.720;2023-03-07T16:20:44;98309.50;;;3.84;100.00
41515;BME280;27247;48.020;16.720;2023-03-07T16:24:54;98316.59;;;3.83;100.00
41515;BME280;27247;48.020;16.720;2023-03-07T16:29:04;98315.28;;;3.88;100.00
41515;BME280;27247;48.020;16.720;2023-03-07T16:33:17;98318.91;;;3.87;100.00
41515;BME280;27247;48.020;16.720;2023-03-07T16:37:28;98305.38;;;3.81;100.00
41515;BME280;27247;48.020;16.720;2023-03-07T16:41:45;98305.25;;;3.75;100.00
41515;BME280;27247;48.020;16.720;2023-03-07T16:45:57;98299.13;;;3.74;100.00
41515;BME280;27247;48.020;16.720;2023-03-07T16:50:15;98298.31;;;3.74;100.00
41515;BME280;27247;48.020;16.720;2023-03-07T16:54:26;98295.34;;;3.69;100.00
41515;BME280;27247;48.020;16.720;2023-03-07T16:58:37;98308.06;;;3.73;100.00
41515;BME280;27247;48.020;16.720;2023-03-07T17:02:50;98305.28;;;3.67;100.00
41515;BME280;27247;48.020;16.720;2023-03-07T17:07:01;98310.03;;;3.71;100.00
41515;BME280;27247;48.020;16.720;2023-03-07T17:11:17;98308.88;;;3.74;100.00
41515;BME280;27247;48.020;16.720;2023-03-07T17:15:29;98315.00;;;3.74;100.00
41515;BME280;27247;48.020;16.720;2023-03-07T17:19:39;98309.69;;;3.74;100.00
41515;BME280;27247;48.020;16.720;2023-03-07T17:23:52;98315.50;;;3.70;100.00
41515;BME280;27247;48.020;16.720;2023-03-07T17:28:06;98324.72;;;3.74;100.00
41515;BME280;27247;48.020;16.720;2023-03-07T17:32:18;98323.75;;;3.75;100.00
41515;BME280;27247;48.020;16.720;2023-03-07T17:36:30;98320.28;;;3.74;100.00
41515;BME280;27247;48.020;16.720;2023-03-07T17:40:41;98323.56;;;3.76;100.00
41515;BME280;27247;48.020;16.720;2023-03-07T17:44:52;98319.59;;;3.80;100.00
41515;BME280;27247;48.020;16.720;2023-03-07T17:49:02;98319.75;;;3.79;100.00
41515;BME280;27247;48.020;16.720;2023-03-07T17:53:13;98307.72;;;3.76;100.00
41515;BME280;27247;48.020;16.720;2023-03-07T17:57:25;98320.59;;;3.71;100.00
41515;BME280;27247;48.020;16.720;2023-03-07T18:01:36;98326.53;;;3.73;100.00
41515;BME280;27247;48.020;16.720;2023-03-07T18:05:47;98315.81;;;3.75;100.00
41515;BME280;27247;48.020;16.720;2023-03-07T18:09:59;98309.69;;;3.74;100.00
41515;BME280;27247;48.020;16.720;2023-03-07T18:14:10;98300.94;;;3.74;100.00
41515;BME280;27247;48.020;16.720;2023-03-07T18:18:22;98300.78;;;3.75;100.00
41515;BME280;27247;48.020;16.720;2023-03-07T18:22:32;98294.16;;;3.79;100.00
41515;BME280;27247;48.020;16.720;2023-03-07T18:26:43;98299.13;;;3.74;100.00
41515;BME280;27247;48.020;16.720;2023-03-07T18:30:59;98307.22;;;3.73;100.00
41515;BME280;27247;48.020;16.720;2023-03-07T18:35:11;98314.84;;;3.68;100.00
41515;BME280;27247;48.020;16.720;2023-03-07T18:39:24;98321.78;;;3.69;100.00
41515;BME280;27247;48.020;16.720;2023-03-07T18:43:37;98320.13;;;3.68;100.00
41515;BME280;27247;48.020;16.720;2023-03-07T18:47:48;98323.94;;;3.65;100.00
41515;BME280;27247;48.020;16.720;2023-03-07T18:51:59;98309.91;;;3.65;100.00
41515;BME280;27247;48.020;16.720;2023-03-07T18:56:15;98302.66;;;3.50;100.00
41515;BME280;27247;48.020;16.720;2023-03-07T19:00:26;98307.28;;;3.48;100.00
41515;BME280;27247;48.020;16.720;2023-03-07T19:04:37;98311.09;;;3.46;100.00
41515;BME280;27247;48.020;16.720;2023-03-07T19:08:48;98314.56;;;3.46;100.00
41515;BME280;27247;48.020;16.720;2023-03-07T19:12:59;98314.25;;;3.41;100.00
41515;BME280;27247;48.020;16.720;2023-03-07T19:17:10;98317.88;;;3.40;100.00
41515;BME280;27247;48.020;16.720;2023-03-07T19:21:23;98322.00;;;3.35;100.00
41515;BME280;27247;48.020;16.720;2023-03-07T19:25:34;98328.94;;;3.36;100.00
41515;BME280;27247;48.020;16.720;2023-03-07T19:29:45;98337.03;;;3.34;100.00
41515;BME280;27247;48.020;16.720;2023-03-07T19:33:56;98342.13;;;3.36;100.00
41515;BME280;27247;48.020;16.720;2023-03-07T19:38:07;98353.53;;;3.28;100.00
41515;BME280;27247;48.020;16.720;2023-03-07T19:42:19;98352.03;;;3.34;100.00
41515;BME280;27247;48.020;16.720;2023-03-07T19:46:31;98354.84;;;3.32;100.00
41515;BME280;27247;48.020;16.720;2023-03-07T19:50:42;98353.69;;;3.27;100.00
41515;BME280;27247;48.020;16.720;2023-03-07T19:54:53;98345.13;;;3.25;100.00
41515;BME280;27247;48.020;16.720;2023-03-07T19:59:04;98348.75;;;3.24;100.00
41515;BME280;27247;48.020;16.720;2023-03-07T20:03:18;98355.69;;;3.25;100.00
41515;BME280;27247;48.020;16.720;2023-03-07T20:07:29;98368.88;;;3.33;100.00
41515;BME280;27247;48.020;16.720;2023-03-07T20:11:40;98380.91;;;3.27;100.00
41515;BME280;27247;48.020;16.720;2023-03-07T20:15:55;98388.00;;;3.35;100.00
41515;BME280;27247;48.020;16.720;2023-03-07T20:20:06;98390.16;;;3.39;100.00
41515;BME280;27247;48.020;16.720;2023-03-07T20:24:18;98393.28;;;3.35;100.00
41515;BME280;27247;48.020;16.720;2023-03-07T20:28:29;98406.66;;;3.41;100.00
41515;BME280;27247;48.020;16.720;2023-03-07T20:32:42;98407.63;;;3.16;100.00
41515;BME280;27247;48.020;16.720;2023-03-07T20:36:53;98413.56;;;3.18;100.00
41515;BME280;27247;48.020;16.720;2023-03-07T20:41:11;98405.31;;;3.13;100.00
41515;BME280;27247;48.020;16.720;2023-03-07T20:45:22;98400.88;;;3.30;100.00
41515;BME280;27247;48.020;16.720;2023-03-07T20:49:35;98385.38;;;3.35;100.00
41515;BME280;27247;48.020;16.720;2023-03-07T20:53:51;98372.50;;;3.32;100.00
41515;BME280;27247;48.020;16.720;2023-03-07T20:58:02;98367.38;;;3.30;100.00
41515;BME280;27247;48.020;16.720;2023-03-07T21:02:13;98385.53;;;3.33;100.00
41515;BME280;27247;48.020;16.720;2023-03-07T21:06:24;98385.53;;;3.33;100.00
41515;BME280;27247;48.020;16.720;2023-03-07T21:10:35;98385.03;;;3.38;100.00
41515;BME280;27247;48.020;16.720;2023-03-07T21:14:46;98381.06;;;3.42;100.00
41515;BME280;27247;48.020;16.720;2023-03-07T21:18:58;98372.00;;;3.44;100.00
41515;BME280;27247;48.020;16.720;2023-03-07T21:23:09;98369.19;;;3.38;99.56
41515;BME280;27247;48.020;16.720;2023-03-07T21:27:20;98365.56;;;3.31;97.20
41515;BME280;27247;48.020;16.720;2023-03-07T21:31:33;98375.59;;;3.11;96.86
41515;BME280;27247;48.020;16.720;2023-03-07T21:35:44;98382.34;;;2.97;97.29
41515;BME280;27247;48.020;16.720;2023-03-07T21:39:54;98381.03;;;2.85;97.04
41515;BME280;27247;48.020;16.720;2023-03-07T21:44:05;98386.31;;;3.01;98.05
41515;BME280;27247;48.020;16.720;2023-03-07T21:48:16;98376.25;;;3.05;99.67
41515;BME280;27247;48.020;16.720;2023-03-07T21:52:28;98372.81;;;3.12;100.00
41515;BME280;27247;48.020;16.720;2023-03-07T21:56:39;98364.88;;;3.04;100.00
41515;BME280;27247;48.020;16.720;2023-03-07T22:00:51;98370.16;;;3.04;100.00
41515;BME280;27247;48.020;16.720;2023-03-07T22:05:02;98371.81;;;3.05;100.00
41515;BME280;27247;48.020;16.720;2023-03-07T22:09:14;98394.41;;;3.00;100.00
41515;BME280;27247;48.020;16.720;2023-03-07T22:13:28;98384.34;;;3.03;100.00
41515;BME280;27247;48.020;16.720;2023-03-07T22:17:38;98396.88;;;3.09;100.00
41515;BME280;27247;48.020;16.720;2023-03-07T22:21:49;98396.88;;;3.01;100.00
41515;BME280;27247;48.020;16.720;2023-03-07T22:26:04;98414.84;;;3.06;100.00
41515;BME280;27247;48.020;16.720;2023-03-07T22:30:15;98412.03;;;2.99;100.00
41515;BME280;27247;48.020;16.720;2023-03-07T22:34:26;98410.28;;;3.16;100.00
41515;BME280;27247;48.020;16.720;2023-03-07T22:38:36;98418.53;;;3.13;100.00
41515;BME280;27247;48.020;16.720;2023-03-07T22:42:46;98426.78;;;3.18;100.00
41515;BME280;27247;48.020;16.720;2023-03-07T22:46:57;98429.78;;;2.73;98.75
41515;BME280;27247;48.020;16.720;2023-03-07T22:51:15;98438.56;;;2.39;97.57
41515;BME280;27247;48.020;16.720;2023-03-07T22:55:28;98441.69;;;2.35;100.00
41515;BME280;27247;48.020;16.720;2023-03-07T22:59:39;98432.34;;;2.48;98.87
41515;BME280;27247;48.020;16.720;2023-03-07T23:03:50;98464.78;;;2.41;100.00
41515;BME280;27247;48.020;16.720;2023-03-07T23:08:02;98471.41;;;2.19;99.61
41515;BME280;27247;48.020;16.720;2023-03-07T23:12:13;98451.19;;;2.28;99.25
41515;BME280;27247;48.020;16.720;2023-03-07T23:16:25;98467.84;;;2.28;99.63
41515;BME280;27247;48.020;16.720;2023-03-07T23:20:36;98493.66;;;1.99;100.00
41515;BME280;27247;48.020;16.720;2023-03-07T23:24:47;98478.34;;;2.02;98.51
41515;BME280;27247;48.020;16.720;2023-03-07T23:28:58;98482.16;;;2.26;100.00
41515;BME280;27247;48.020;16.720;2023-03-07T23:33:09;98464.88;;;2.31;100.00
41515;BME280;27247;48.020;16.720;2023-03-07T23:37:19;98462.13;;;2.41;100.00
41515;BME280;27247;48.020;16.720;2023-03-07T23:41:30;98461.63;;;2.37;100.00
41515;BME280;27247;48.020;16.720;2023-03-07T23:45:40;98460.16;;;2.43;100.00
41515;BME280;27247;48.020;16.720;2023-03-07T23:49:51;98470.00;;;2.07;100.00
41515;BME280;27247;48.020;16.720;2023-03-07T23:54:01;98471.63;;;1.82;100.00
41515;BME280;27247;48.020;16.720;2023-03-07T23:58:11;98473.94;;;1.59;100.00
